sensor_id;sensor_type;location;lat;lon;timestamp;P1;durP1;ratioP1;P2;durP2;ratioP2
74519;SDS011;63002;48.134;-1.948;2023-12-20T06:01:53;2.05;;;0.32;;
74519;SDS011;63002;48.134;-1.948;2023-12-20T06:04:19;1.60;;;0.40;;
74519;SDS011;63002;48.134;-1.948;2023-12-20T06:06:44;3.00;;;0.63;;
74519;SDS011;63002;48.134;-1.948;2023-12-20T06:09:10;3.60;;;0.40;;
74519;SDS011;63002;48.134;-1.948;2023-12-20T06:11:36;1.98;;;0.40;;
74519;SDS011;63002;48.134;-1.948;2023-12-20T06:14:02;3.00;;;0.63;;
74519;SDS011;63002;48.134;-1.948;2023-12-20T06:16:28;6.00;;;0.70;;
74519;SDS011;63002;48.134;-1.948;2023-12-20T06:18:53;2.87;;;0.53;;
74519;SDS011;63002;48.134;-1.948;2023-12-20T06:21:19;3.40;;;0.50;;
74519;SDS011;63002;48.134;-1.948;2023-12-20T06:23:45;4.67;;;0.73;;
74519;SDS011;63002;48.134;-1.948;2023-12-20T06:26:10;4.40;;;0.60;;
74519;SDS011;63002;48.134;-1.948;2023-12-20T06:28:36;5.18;;;0.70;;
74519;SDS011;63002;48.134;-1.948;2023-12-20T06:31:02;5.47;;;0.60;;
74519;SDS011;63002;48.134;-1.948;2023-12-20T06:33:28;3.95;;;0.70;;
74519;SDS011;63002;48.134;-1.948;2023-12-20T06:35:55;5.65;;;0.63;;
74519;SDS011;63002;48.134;-1.948;2023-12-20T06:38:22;6.68;;;0.65;;
74519;SDS011;63002;48.134;-1.948;2023-12-20T06:40:48;2.75;;;0.60;;
74519;SDS011;63002;48.134;-1.948;2023-12-20T06:43:13;5.60;;;0.87;;
74519;SDS011;63002;48.134;-1.948;2023-12-20T06:45:39;3.70;;;0.63;;
74519;SDS011;63002;48.134;-1.948;2023-12-20T06:48:05;4.00;;;0.67;;
74519;SDS011;63002;48.134;-1.948;2023-12-20T06:50:31;2.88;;;0.50;;
74519;SDS011;63002;48.134;-1.948;2023-12-20T06:52:57;3.00;;;0.43;;
74519;SDS011;63002;48.134;-1.948;2023-12-20T06:55:23;6.77;;;0.60;;
74519;SDS011;63002;48.134;-1.948;2023-12-20T06:57:48;4.32;;;0.52;;
74519;SDS011;63002;48.134;-1.948;2023-12-20T07:00:14;5.15;;;0.77;;
74519;SDS011;63002;48.134;-1.948;2023-12-20T07:02:40;2.97;;;0.50;;
74519;SDS011;63002;48.134;-1.948;2023-12-20T07:05:06;4.03;;;0.80;;
74519;SDS011;63002;48.134;-1.948;2023-12-20T07:07:32;3.58;;;0.45;;
74519;SDS011;63002;48.134;-1.948;2023-12-20T07:09:58;3.97;;;0.70;;
74519;SDS011;63002;48.134;-1.948;2023-12-20T07:12:24;3.97;;;0.80;;
74519;SDS011;63002;48.134;-1.948;2023-12-20T07:14:49;4.15;;;0.70;;
74519;SDS011;63002;48.134;-1.948;2023-12-20T07:17:15;4.47;;;0.65;;
74519;SDS011;63002;48.134;-1.948;2023-12-20T07:19:41;5.90;;;0.80;;
74519;SDS011;63002;48.134;-1.948;2023-12-20T07:22:07;3.40;;;0.57;;
74519;SDS011;63002;48.134;-1.948;2023-12-20T07:24:33;3.60;;;0.65;;
74519;SDS011;63002;48.134;-1.948;2023-12-20T07:27:02;5.65;;;0.70;;
74519;SDS011;63002;48.134;-1.948;2023-12-20T07:29:28;6.40;;;0.80;;
74519;SDS011;63002;48.134;-1.948;2023-12-20T07:31:53;5.13;;;0.60;;
74519;SDS011;63002;48.134;-1.948;2023-12-20T07:34:20;5.50;;;0.73;;
74519;SDS011;63002;48.134;-1.948;2023-12-20T07:36:46;4.57;;;0.60;;
74519;SDS011;63002;48.134;-1.948;2023-12-20T07:39:12;3.88;;;0.80;;
74519;SDS011;63002;48.134;-1.948;2023-12-20T07:41:38;4.47;;;0.88;;
74519;SDS011;63002;48.134;-1.948;2023-12-20T07:44:04;6.27;;;0.60;;
74519;SDS011;63002;48.134;-1.948;2023-12-20T07:46:30;4.72;;;0.73;;
74519;SDS011;63002;48.134;-1.948;2023-12-20T07:48:56;5.57;;;0.85;;
74519;SDS011;63002;48.134;-1.948;2023-12-20T07:51:21;4.43;;;0.80;;
74519;SDS011;63002;48.134;-1.948;2023-12-20T07:53:47;4.63;;;0.90;;
74519;SDS011;63002;48.134;-1.948;2023-12-20T07:56:22;3.47;;;0.60;;
74519;SDS011;63002;48.134;-1.948;2023-12-20T07:58:47;4.93;;;1.10;;
74519;SDS011;63002;48.134;-1.948;2023-12-20T08:01:15;3.00;;;0.93;;
74519;SDS011;63002;48.134;-1.948;2023-12-20T08:03:42;5.57;;;0.57;;
74519;SDS011;63002;48.134;-1.948;2023-12-20T08:06:08;4.13;;;0.82;;
74519;SDS011;63002;48.134;-1.948;2023-12-20T08:08:33;7.17;;;1.00;;
74519;SDS011;63002;48.134;-1.948;2023-12-20T08:10:59;3.03;;;0.70;;
74519;SDS011;63002;48.134;-1.948;2023-12-20T08:13:25;6.60;;;0.70;;
74519;SDS011;63002;48.134;-1.948;2023-12-20T08:15:52;5.68;;;1.05;;
74519;SDS011;63002;48.134;-1.948;2023-12-20T08:18:18;6.80;;;0.98;;
74519;SDS011;63002;48.134;-1.948;2023-12-20T08:20:44;4.65;;;1.00;;
74519;SDS011;63002;48.134;-1.948;2023-12-20T08:23:10;3.15;;;0.52;;
74519;SDS011;63002;48.134;-1.948;2023-12-20T08:25:35;3.72;;;0.70;;
74519;SDS011;63002;48.134;-1.948;2023-12-20T08:28:04;5.27;;;0.80;;
74519;SDS011;63002;48.134;-1.948;2023-12-20T08:30:30;3.17;;;0.73;;
74519;SDS011;63002;48.134;-1.948;2023-12-20T08:32:59;4.90;;;0.80;;
74519;SDS011;63002;48.134;-1.948;2023-12-20T08:35:25;4.03;;;0.90;;
74519;SDS011;63002;48.134;-1.948;2023-12-20T08:37:50;3.20;;;0.70;;
74519;SDS011;63002;48.134;-1.948;2023-12-20T08:40:16;3.33;;;0.70;;
74519;SDS011;63002;48.134;-1.948;2023-12-20T08:42:42;5.50;;;0.80;;
74519;SDS011;63002;48.134;-1.948;2023-12-20T08:45:08;4.33;;;0.80;;
74519;SDS011;63002;48.134;-1.948;2023-12-20T08:47:33;3.65;;;0.80;;
74519;SDS011;63002;48.134;-1.948;2023-12-20T08:49:59;3.37;;;0.63;;
74519;SDS011;63002;48.134;-1.948;2023-12-20T08:52:26;4.18;;;0.70;;
74519;SDS011;63002;48.134;-1.948;2023-12-20T08:54:52;3.67;;;0.70;;
74519;SDS011;63002;48.134;-1.948;2023-12-20T08:57:21;4.28;;;0.70;;
74519;SDS011;63002;48.134;-1.948;2023-12-20T08:59:48;3.03;;;0.50;;
74519;SDS011;63002;48.134;-1.948;2023-12-20T09:02:15;4.32;;;1.00;;
74519;SDS011;63002;48.134;-1.948;2023-12-20T09:04:41;3.58;;;0.60;;
74519;SDS011;63002;48.134;-1.948;2023-12-20T09:07:20;3.77;;;0.80;;
74519;SDS011;63002;48.134;-1.948;2023-12-20T09:09:49;4.18;;;0.57;;
74519;SDS011;63002;48.134;-1.948;2023-12-20T09:12:15;4.07;;;0.73;;
74519;SDS011;63002;48.134;-1.948;2023-12-20T09:14:42;4.68;;;0.90;;
74519;SDS011;63002;48.134;-1.948;2023-12-20T09:17:08;4.17;;;0.87;;
74519;SDS011;63002;48.134;-1.948;2023-12-20T09:19:36;4.05;;;0.77;;
74519;SDS011;63002;48.134;-1.948;2023-12-20T09:22:02;4.87;;;0.80;;
74519;SDS011;63002;48.134;-1.948;2023-12-20T09:24:28;4.72;;;0.82;;
74519;SDS011;63002;48.134;-1.948;2023-12-20T09:26:55;5.63;;;1.00;;
74519;SDS011;63002;48.134;-1.948;2023-12-20T09:29:20;4.53;;;0.80;;
74519;SDS011;63002;48.134;-1.948;2023-12-20T09:31:46;5.40;;;0.82;;
74519;SDS011;63002;48.134;-1.948;2023-12-20T09:34:14;6.53;;;0.90;;
74519;SDS011;63002;48.134;-1.948;2023-12-20T09:36:40;4.25;;;0.70;;
74519;SDS011;63002;48.134;-1.948;2023-12-20T09:39:11;5.13;;;0.73;;
74519;SDS011;63002;48.134;-1.948;2023-12-20T09:41:44;4.03;;;0.57;;
74519;SDS011;63002;48.134;-1.948;2023-12-20T09:44:15;4.43;;;0.70;;
74519;SDS011;63002;48.134;-1.948;2023-12-20T09:46:44;4.33;;;0.63;;
74519;SDS011;63002;48.134;-1.948;2023-12-20T09:49:17;3.95;;;0.88;;
74519;SDS011;63002;48.134;-1.948;2023-12-20T09:51:46;5.57;;;0.85;;
74519;SDS011;63002;48.134;-1.948;2023-12-20T09:54:15;3.25;;;0.63;;
74519;SDS011;63002;48.134;-1.948;2023-12-20T09:56:43;4.95;;;0.95;;
74519;SDS011;63002;48.134;-1.948;2023-12-20T09:59:12;4.37;;;0.70;;
74519;SDS011;63002;48.134;-1.948;2023-12-20T10:01:41;5.30;;;0.80;;
74519;SDS011;63002;48.134;-1.948;2023-12-20T10:04:08;3.00;;;0.70;;
74519;SDS011;63002;48.134;-1.948;2023-12-20T10:06:39;5.00;;;0.95;;
74519;SDS011;63002;48.134;-1.948;2023-12-20T10:09:07;4.15;;;0.80;;
74519;SDS011;63002;48.134;-1.948;2023-12-20T10:11:34;5.07;;;1.03;;
74519;SDS011;63002;48.134;-1.948;2023-12-20T10:14:02;4.13;;;0.73;;
74519;SDS011;63002;48.134;-1.948;2023-12-20T10:16:28;5.78;;;0.68;;
74519;SDS011;63002;48.134;-1.948;2023-12-20T10:18:55;4.45;;;0.70;;
74519;SDS011;63002;48.134;-1.948;2023-12-20T10:21:24;3.47;;;0.70;;
74519;SDS011;63002;48.134;-1.948;2023-12-20T10:23:54;6.23;;;0.70;;
74519;SDS011;63002;48.134;-1.948;2023-12-20T10:26:23;5.28;;;0.85;;
74519;SDS011;63002;48.134;-1.948;2023-12-20T10:28:53;3.47;;;0.70;;
74519;SDS011;63002;48.134;-1.948;2023-12-20T10:31:33;5.82;;;0.88;;
74519;SDS011;63002;48.134;-1.948;2023-12-20T10:34:00;5.72;;;1.10;;
74519;SDS011;63002;48.134;-1.948;2023-12-20T10:36:28;4.53;;;0.70;;
74519;SDS011;63002;48.134;-1.948;2023-12-20T10:38:56;5.15;;;0.90;;
74519;SDS011;63002;48.134;-1.948;2023-12-20T10:41:26;7.05;;;1.08;;
74519;SDS011;63002;48.134;-1.948;2023-12-20T10:44:03;7.40;;;0.95;;
74519;SDS011;63002;48.134;-1.948;2023-12-20T10:46:33;3.90;;;0.60;;
74519;SDS011;63002;48.134;-1.948;2023-12-20T10:49:02;7.03;;;0.97;;
74519;SDS011;63002;48.134;-1.948;2023-12-20T10:51:30;7.97;;;1.08;;
74519;SDS011;63002;48.134;-1.948;2023-12-20T10:53:56;6.10;;;0.88;;
74519;SDS011;63002;48.134;-1.948;2023-12-20T10:56:22;3.95;;;0.80;;
74519;SDS011;63002;48.134;-1.948;2023-12-20T10:58:49;7.23;;;1.07;;
74519;SDS011;63002;48.134;-1.948;2023-12-20T11:01:15;8.20;;;0.93;;
74519;SDS011;63002;48.134;-1.948;2023-12-20T11:03:50;7.35;;;1.02;;
74519;SDS011;63002;48.134;-1.948;2023-12-20T11:09:26;5.50;;;0.98;;
74519;SDS011;63002;48.134;-1.948;2023-12-20T11:14:48;5.88;;;0.75;;
74519;SDS011;63002;48.134;-1.948;2023-12-20T11:17:16;5.57;;;0.82;;
74519;SDS011;63002;48.134;-1.948;2023-12-20T11:20:03;7.07;;;1.17;;
74519;SDS011;63002;48.134;-1.948;2023-12-20T11:22:30;6.10;;;0.98;;
74519;SDS011;63002;48.134;-1.948;2023-12-20T11:25:06;4.90;;;0.73;;
74519;SDS011;63002;48.134;-1.948;2023-12-20T11:27:34;5.53;;;0.77;;
74519;SDS011;63002;48.134;-1.948;2023-12-20T11:30:00;4.07;;;0.60;;
74519;SDS011;63002;48.134;-1.948;2023-12-20T11:32:31;8.80;;;0.95;;
74519;SDS011;63002;48.134;-1.948;2023-12-20T11:35:16;4.65;;;0.70;;
74519;SDS011;63002;48.134;-1.948;2023-12-20T11:37:44;4.53;;;1.02;;
74519;SDS011;63002;48.134;-1.948;2023-12-20T11:40:16;6.25;;;0.80;;
74519;SDS011;63002;48.134;-1.948;2023-12-20T11:42:48;4.72;;;0.80;;
74519;SDS011;63002;48.134;-1.948;2023-12-20T11:45:15;4.80;;;0.80;;
74519;SDS011;63002;48.134;-1.948;2023-12-20T11:47:47;5.75;;;0.82;;
74519;SDS011;63002;48.134;-1.948;2023-12-20T11:50:17;5.67;;;0.70;;
74519;SDS011;63002;48.134;-1.948;2023-12-20T11:52:43;6.75;;;1.13;;
74519;SDS011;63002;48.134;-1.948;2023-12-20T11:55:09;3.63;;;0.50;;
74519;SDS011;63002;48.134;-1.948;2023-12-20T11:57:35;5.40;;;0.80;;
74519;SDS011;63002;48.134;-1.948;2023-12-20T12:00:01;4.70;;;0.70;;
74519;SDS011;63002;48.134;-1.948;2023-12-20T12:02:28;3.60;;;0.68;;
74519;SDS011;63002;48.134;-1.948;2023-12-20T12:04:53;4.35;;;0.85;;
74519;SDS011;63002;48.134;-1.948;2023-12-20T12:07:21;12.60;;;3.27;;
74519;SDS011;63002;48.134;-1.948;2023-12-20T12:09:47;9.00;;;2.05;;
74519;SDS011;63002;48.134;-1.948;2023-12-20T12:12:13;8.50;;;1.63;;
74519;SDS011;63002;48.134;-1.948;2023-12-20T12:14:39;8.77;;;1.60;;
74519;SDS011;63002;48.134;-1.948;2023-12-20T12:17:10;5.77;;;1.30;;
74519;SDS011;63002;48.134;-1.948;2023-12-20T12:19:37;8.63;;;1.17;;
74519;SDS011;63002;48.134;-1.948;2023-12-20T12:22:07;6.78;;;1.35;;
74519;SDS011;63002;48.134;-1.948;2023-12-20T12:24:41;6.78;;;1.30;;
74519;SDS011;63002;48.134;-1.948;2023-12-20T12:27:08;6.85;;;1.35;;
74519;SDS011;63002;48.134;-1.948;2023-12-20T12:29:35;5.30;;;0.70;;
74519;SDS011;63002;48.134;-1.948;2023-12-20T12:32:06;4.38;;;0.82;;
74519;SDS011;63002;48.134;-1.948;2023-12-20T12:34:33;4.72;;;0.90;;
74519;SDS011;63002;48.134;-1.948;2023-12-20T12:37:03;7.20;;;0.90;;
74519;SDS011;63002;48.134;-1.948;2023-12-20T12:39:29;4.95;;;1.10;;
74519;SDS011;63002;48.134;-1.948;2023-12-20T12:41:55;4.10;;;0.80;;
74519;SDS011;63002;48.134;-1.948;2023-12-20T12:44:22;5.72;;;0.70;;
74519;SDS011;63002;48.134;-1.948;2023-12-20T12:46:50;3.67;;;0.60;;
74519;SDS011;63002;48.134;-1.948;2023-12-20T12:49:18;7.00;;;0.80;;
74519;SDS011;63002;48.134;-1.948;2023-12-20T12:51:46;5.87;;;1.00;;
74519;SDS011;63002;48.134;-1.948;2023-12-20T12:54:12;4.82;;;0.70;;
74519;SDS011;63002;48.134;-1.948;2023-12-20T12:56:40;5.15;;;0.75;;
74519;SDS011;63002;48.134;-1.948;2023-12-20T12:59:06;3.50;;;0.60;;
74519;SDS011;63002;48.134;-1.948;2023-12-20T13:01:32;3.55;;;0.70;;
74519;SDS011;63002;48.134;-1.948;2023-12-20T13:03:57;3.43;;;0.77;;
74519;SDS011;63002;48.134;-1.948;2023-12-20T13:06:23;4.05;;;0.60;;
74519;SDS011;63002;48.134;-1.948;2023-12-20T13:08:49;5.57;;;0.80;;
74519;SDS011;63002;48.134;-1.948;2023-12-20T13:11:15;2.85;;;0.55;;
74519;SDS011;63002;48.134;-1.948;2023-12-20T13:13:40;4.65;;;0.90;;
74519;SDS011;63002;48.134;-1.948;2023-12-20T13:16:06;5.35;;;0.80;;
74519;SDS011;63002;48.134;-1.948;2023-12-20T13:18:32;4.32;;;0.55;;
74519;SDS011;63002;48.134;-1.948;2023-12-20T13:20:58;3.23;;;0.60;;
74519;SDS011;63002;48.134;-1.948;2023-12-20T13:23:24;5.40;;;0.80;;
74519;SDS011;63002;48.134;-1.948;2023-12-20T13:25:50;2.50;;;0.52;;
74519;SDS011;63002;48.134;-1.948;2023-12-20T13:28:15;3.87;;;0.50;;
74519;SDS011;63002;48.134;-1.948;2023-12-20T13:30:41;4.53;;;0.90;;
74519;SDS011;63002;48.134;-1.948;2023-12-20T13:33:07;3.57;;;0.57;;
74519;SDS011;63002;48.134;-1.948;2023-12-20T13:35:33;4.85;;;0.50;;
74519;SDS011;63002;48.134;-1.948;2023-12-20T13:38:00;3.77;;;0.70;;
74519;SDS011;63002;48.134;-1.948;2023-12-20T13:40:26;2.83;;;0.70;;
74519;SDS011;63002;48.134;-1.948;2023-12-20T13:42:53;2.83;;;0.55;;
74519;SDS011;63002;48.134;-1.948;2023-12-20T13:45:20;4.45;;;0.60;;
74519;SDS011;63002;48.134;-1.948;2023-12-20T13:47:45;2.53;;;0.40;;
74519;SDS011;63002;48.134;-1.948;2023-12-20T13:50:11;5.15;;;0.80;;
74519;SDS011;63002;48.134;-1.948;2023-12-20T13:52:37;3.65;;;0.73;;
74519;SDS011;63002;48.134;-1.948;2023-12-20T13:55:03;2.88;;;0.57;;
74519;SDS011;63002;48.134;-1.948;2023-12-20T13:57:32;5.68;;;0.68;;
74519;SDS011;63002;48.134;-1.948;2023-12-20T13:59:58;4.07;;;0.55;;
74519;SDS011;63002;48.134;-1.948;2023-12-20T14:02:24;2.75;;;0.70;;
74519;SDS011;63002;48.134;-1.948;2023-12-20T14:04:52;3.90;;;0.60;;
74519;SDS011;63002;48.134;-1.948;2023-12-20T14:07:17;3.08;;;0.40;;
74519;SDS011;63002;48.134;-1.948;2023-12-20T14:09:43;4.80;;;0.50;;
74519;SDS011;63002;48.134;-1.948;2023-12-20T14:12:10;5.03;;;0.50;;
74519;SDS011;63002;48.134;-1.948;2023-12-20T14:14:36;3.22;;;0.50;;
74519;SDS011;63002;48.134;-1.948;2023-12-20T14:17:02;5.35;;;0.80;;
74519;SDS011;63002;48.134;-1.948;2023-12-20T14:19:29;2.92;;;0.57;;
74519;SDS011;63002;48.134;-1.948;2023-12-20T14:21:54;3.53;;;0.50;;
74519;SDS011;63002;48.134;-1.948;2023-12-20T14:24:20;3.47;;;0.40;;
74519;SDS011;63002;48.134;-1.948;2023-12-20T14:26:46;4.40;;;0.60;;
74519;SDS011;63002;48.134;-1.948;2023-12-20T14:29:11;4.97;;;0.80;;
74519;SDS011;63002;48.134;-1.948;2023-12-20T14:31:37;3.33;;;0.60;;
74519;SDS011;63002;48.134;-1.948;2023-12-20T14:34:04;5.27;;;0.80;;
74519;SDS011;63002;48.134;-1.948;2023-12-20T14:36:30;4.53;;;0.80;;
74519;SDS011;63002;48.134;-1.948;2023-12-20T14:38:56;4.20;;;0.90;;
74519;SDS011;63002;48.134;-1.948;2023-12-20T14:41:22;4.50;;;0.95;;
74519;SDS011;63002;48.134;-1.948;2023-12-20T14:43:49;2.65;;;0.65;;
74519;SDS011;63002;48.134;-1.948;2023-12-20T14:46:17;7.47;;;1.00;;
74519;SDS011;63002;48.134;-1.948;2023-12-20T14:48:42;3.33;;;0.70;;
74519;SDS011;63002;48.134;-1.948;2023-12-20T14:51:08;4.88;;;0.80;;
74519;SDS011;63002;48.134;-1.948;2023-12-20T14:53:34;5.60;;;1.13;;
74519;SDS011;63002;48.134;-1.948;2023-12-20T14:56:02;4.70;;;1.13;;
74519;SDS011;63002;48.134;-1.948;2023-12-20T14:58:29;5.85;;;1.35;;
74519;SDS011;63002;48.134;-1.948;2023-12-20T15:00:55;6.07;;;0.73;;
74519;SDS011;63002;48.134;-1.948;2023-12-20T15:03:21;4.63;;;1.15;;
74519;SDS011;63002;48.134;-1.948;2023-12-20T15:05:47;2.75;;;0.68;;
74519;SDS011;63002;48.134;-1.948;2023-12-20T15:08:13;5.33;;;0.90;;
74519;SDS011;63002;48.134;-1.948;2023-12-20T15:10:39;7.20;;;1.20;;
74519;SDS011;63002;48.134;-1.948;2023-12-20T15:13:05;6.63;;;1.40;;
74519;SDS011;63002;48.134;-1.948;2023-12-20T15:15:31;6.15;;;1.30;;
74519;SDS011;63002;48.134;-1.948;2023-12-20T15:17:58;4.75;;;1.27;;
74519;SDS011;63002;48.134;-1.948;2023-12-20T15:20:24;5.25;;;0.90;;
74519;SDS011;63002;48.134;-1.948;2023-12-20T15:22:50;7.05;;;1.30;;
74519;SDS011;63002;48.134;-1.948;2023-12-20T15:25:16;5.23;;;0.83;;
74519;SDS011;63002;48.134;-1.948;2023-12-20T15:27:46;5.13;;;0.90;;
74519;SDS011;63002;48.134;-1.948;2023-12-20T15:30:18;8.00;;;1.35;;
74519;SDS011;63002;48.134;-1.948;2023-12-20T15:32:44;7.00;;;1.27;;
74519;SDS011;63002;48.134;-1.948;2023-12-20T15:35:10;7.30;;;1.75;;
74519;SDS011;63002;48.134;-1.948;2023-12-20T15:37:37;5.15;;;0.95;;
74519;SDS011;63002;48.134;-1.948;2023-12-20T15:40:04;5.38;;;0.80;;
74519;SDS011;63002;48.134;-1.948;2023-12-20T15:42:32;6.30;;;1.20;;
74519;SDS011;63002;48.134;-1.948;2023-12-20T15:45:01;5.07;;;0.90;;
74519;SDS011;63002;48.134;-1.948;2023-12-20T15:47:27;6.40;;;1.20;;
74519;SDS011;63002;48.134;-1.948;2023-12-20T15:49:53;4.63;;;0.93;;
74519;SDS011;63002;48.134;-1.948;2023-12-20T15:52:18;2.47;;;0.60;;
74519;SDS011;63002;48.134;-1.948;2023-12-20T15:54:44;4.60;;;0.93;;
74519;SDS011;63002;48.134;-1.948;2023-12-20T15:57:11;3.50;;;0.80;;
74519;SDS011;63002;48.134;-1.948;2023-12-20T15:59:37;3.22;;;0.75;;
74519;SDS011;63002;48.134;-1.948;2023-12-20T16:02:02;4.03;;;0.80;;
74519;SDS011;63002;48.134;-1.948;2023-12-20T16:04:28;5.28;;;1.02;;
74519;SDS011;63002;48.134;-1.948;2023-12-20T16:06:54;5.40;;;1.10;;
74519;SDS011;63002;48.134;-1.948;2023-12-20T16:09:20;5.65;;;1.23;;
74519;SDS011;63002;48.134;-1.948;2023-12-20T16:11:45;4.97;;;0.80;;
74519;SDS011;63002;48.134;-1.948;2023-12-20T16:14:11;4.20;;;0.93;;
74519;SDS011;63002;48.134;-1.948;2023-12-20T16:16:44;4.97;;;0.80;;
74519;SDS011;63002;48.134;-1.948;2023-12-20T16:19:10;5.22;;;0.90;;
74519;SDS011;63002;48.134;-1.948;2023-12-20T16:21:36;5.45;;;1.02;;
74519;SDS011;63002;48.134;-1.948;2023-12-20T16:24:02;5.40;;;1.00;;
74519;SDS011;63002;48.134;-1.948;2023-12-20T16:26:28;4.18;;;0.93;;
74519;SDS011;63002;48.134;-1.948;2023-12-20T16:28:54;7.72;;;1.00;;
74519;SDS011;63002;48.134;-1.948;2023-12-20T16:31:19;7.33;;;1.30;;
74519;SDS011;63002;48.134;-1.948;2023-12-20T16:33:45;5.45;;;0.95;;
74519;SDS011;63002;48.134;-1.948;2023-12-20T16:36:11;6.63;;;1.00;;
74519;SDS011;63002;48.134;-1.948;2023-12-20T16:38:36;6.55;;;1.10;;
74519;SDS011;63002;48.134;-1.948;2023-12-20T16:41:02;4.77;;;1.00;;
74519;SDS011;63002;48.134;-1.948;2023-12-20T16:43:28;4.35;;;1.00;;
74519;SDS011;63002;48.134;-1.948;2023-12-20T16:45:54;3.80;;;1.00;;
74519;SDS011;63002;48.134;-1.948;2023-12-20T16:48:20;4.45;;;1.00;;
74519;SDS011;63002;48.134;-1.948;2023-12-20T16:50:45;6.10;;;1.20;;
74519;SDS011;63002;48.134;-1.948;2023-12-20T16:53:11;4.15;;;0.68;;
74519;SDS011;63002;48.134;-1.948;2023-12-20T16:55:37;5.40;;;1.08;;
74519;SDS011;63002;48.134;-1.948;2023-12-20T16:58:03;5.77;;;1.00;;
74519;SDS011;63002;48.134;-1.948;2023-12-20T17:00:29;5.55;;;0.85;;
74519;SDS011;63002;48.134;-1.948;2023-12-20T17:02:54;5.20;;;0.97;;
74519;SDS011;63002;48.134;-1.948;2023-12-20T17:05:20;4.40;;;0.88;;
74519;SDS011;63002;48.134;-1.948;2023-12-20T17:07:46;3.88;;;0.70;;
74519;SDS011;63002;48.134;-1.948;2023-12-20T17:10:11;3.07;;;0.70;;
74519;SDS011;63002;48.134;-1.948;2023-12-20T17:12:37;4.95;;;0.95;;
74519;SDS011;63002;48.134;-1.948;2023-12-20T17:15:03;4.40;;;0.90;;
74519;SDS011;63002;48.134;-1.948;2023-12-20T17:17:30;4.82;;;1.15;;
74519;SDS011;63002;48.134;-1.948;2023-12-20T17:19:56;5.28;;;1.13;;
74519;SDS011;63002;48.134;-1.948;2023-12-20T17:22:21;4.70;;;1.00;;
74519;SDS011;63002;48.134;-1.948;2023-12-20T17:24:47;5.00;;;1.10;;
74519;SDS011;63002;48.134;-1.948;2023-12-20T17:27:13;4.83;;;1.20;;
74519;SDS011;63002;48.134;-1.948;2023-12-20T17:29:38;3.65;;;0.90;;
74519;SDS011;63002;48.134;-1.948;2023-12-20T17:32:04;6.88;;;1.67;;
74519;SDS011;63002;48.134;-1.948;2023-12-20T17:34:30;3.80;;;1.00;;
74519;SDS011;63002;48.134;-1.948;2023-12-20T17:36:56;4.53;;;0.90;;
74519;SDS011;63002;48.134;-1.948;2023-12-20T17:39:22;5.65;;;1.50;;
74519;SDS011;63002;48.134;-1.948;2023-12-20T17:41:47;3.95;;;1.00;;
74519;SDS011;63002;48.134;-1.948;2023-12-20T17:44:13;4.82;;;0.90;;
74519;SDS011;63002;48.134;-1.948;2023-12-20T17:46:41;5.35;;;1.10;;
74519;SDS011;63002;48.134;-1.948;2023-12-20T17:49:08;6.93;;;1.13;;
74519;SDS011;63002;48.134;-1.948;2023-12-20T17:51:33;5.43;;;1.10;;
74519;SDS011;63002;48.134;-1.948;2023-12-20T17:53:59;5.83;;;1.13;;
74519;SDS011;63002;48.134;-1.948;2023-12-20T17:56:27;5.53;;;0.98;;
74519;SDS011;63002;48.134;-1.948;2023-12-20T17:58:54;4.68;;;0.90;;
74519;SDS011;63002;48.134;-1.948;2023-12-20T18:01:20;5.22;;;0.90;;
74519;SDS011;63002;48.134;-1.948;2023-12-20T18:03:46;3.15;;;0.88;;
74519;SDS011;63002;48.134;-1.948;2023-12-20T18:06:12;6.47;;;1.10;;
74519;SDS011;63002;48.134;-1.948;2023-12-20T18:08:38;5.35;;;1.00;;
74519;SDS011;63002;48.134;-1.948;2023-12-20T18:11:04;3.85;;;1.05;;
74519;SDS011;63002;48.134;-1.948;2023-12-20T18:13:29;5.43;;;1.10;;
74519;SDS011;63002;48.134;-1.948;2023-12-20T18:15:56;4.83;;;1.00;;
74519;SDS011;63002;48.134;-1.948;2023-12-20T18:18:24;3.63;;;0.90;;
74519;SDS011;63002;48.134;-1.948;2023-12-20T18:20:50;4.75;;;1.00;;
74519;SDS011;63002;48.134;-1.948;2023-12-20T18:23:15;4.50;;;0.90;;
74519;SDS011;63002;48.134;-1.948;2023-12-20T18:25:41;4.93;;;1.00;;
74519;SDS011;63002;48.134;-1.948;2023-12-20T18:28:07;3.73;;;0.80;;
74519;SDS011;63002;48.134;-1.948;2023-12-20T18:30:33;5.10;;;1.13;;
74519;SDS011;63002;48.134;-1.948;2023-12-20T18:32:58;7.33;;;1.10;;
74519;SDS011;63002;48.134;-1.948;2023-12-20T18:35:24;5.10;;;1.20;;
74519;SDS011;63002;48.134;-1.948;2023-12-20T18:37:50;4.97;;;1.20;;
74519;SDS011;63002;48.134;-1.948;2023-12-20T18:40:15;3.63;;;0.60;;
74519;SDS011;63002;48.134;-1.948;2023-12-20T18:42:41;5.28;;;1.25;;
74519;SDS011;63002;48.134;-1.948;2023-12-20T18:45:07;5.83;;;1.90;;
74519;SDS011;63002;48.134;-1.948;2023-12-20T18:47:33;8.05;;;2.38;;
74519;SDS011;63002;48.134;-1.948;2023-12-20T18:49:59;8.70;;;2.55;;
74519;SDS011;63002;48.134;-1.948;2023-12-20T18:52:28;10.55;;;3.15;;
74519;SDS011;63002;48.134;-1.948;2023-12-20T18:54:53;11.07;;;4.13;;
74519;SDS011;63002;48.134;-1.948;2023-12-20T18:57:19;9.13;;;3.97;;
74519;SDS011;63002;48.134;-1.948;2023-12-20T18:59:45;11.57;;;4.30;;
74519;SDS011;63002;48.134;-1.948;2023-12-20T19:02:10;13.45;;;4.55;;
74519;SDS011;63002;48.134;-1.948;2023-12-20T19:04:39;10.38;;;4.90;;
74519;SDS011;63002;48.134;-1.948;2023-12-20T19:07:04;11.82;;;4.50;;
74519;SDS011;63002;48.134;-1.948;2023-12-20T19:09:30;12.88;;;4.57;;
74519;SDS011;63002;48.134;-1.948;2023-12-20T19:11:56;11.80;;;4.60;;
74519;SDS011;63002;48.134;-1.948;2023-12-20T19:14:22;11.60;;;4.60;;
74519;SDS011;63002;48.134;-1.948;2023-12-20T19:16:48;12.40;;;4.57;;
74519;SDS011;63002;48.134;-1.948;2023-12-20T19:19:15;14.02;;;5.18;;
74519;SDS011;63002;48.134;-1.948;2023-12-20T19:21:41;14.68;;;4.63;;
74519;SDS011;63002;48.134;-1.948;2023-12-20T19:24:07;13.33;;;4.40;;
74519;SDS011;63002;48.134;-1.948;2023-12-20T19:26:33;13.40;;;4.25;;
74519;SDS011;63002;48.134;-1.948;2023-12-20T19:28:58;11.68;;;4.82;;
74519;SDS011;63002;48.134;-1.948;2023-12-20T19:31:24;12.60;;;4.33;;
74519;SDS011;63002;48.134;-1.948;2023-12-20T19:33:50;11.23;;;3.78;;
74519;SDS011;63002;48.134;-1.948;2023-12-20T19:36:17;11.83;;;3.97;;
74519;SDS011;63002;48.134;-1.948;2023-12-20T19:38:43;13.05;;;3.85;;
74519;SDS011;63002;48.134;-1.948;2023-12-20T19:41:09;10.82;;;3.50;;
74519;SDS011;63002;48.134;-1.948;2023-12-20T19:43:36;10.80;;;3.42;;
74519;SDS011;63002;48.134;-1.948;2023-12-20T19:46:02;11.05;;;3.60;;
74519;SDS011;63002;48.134;-1.948;2023-12-20T19:48:29;12.43;;;3.83;;
74519;SDS011;63002;48.134;-1.948;2023-12-20T19:50:54;10.48;;;3.05;;
74519;SDS011;63002;48.134;-1.948;2023-12-20T19:53:20;8.68;;;3.15;;
74519;SDS011;63002;48.134;-1.948;2023-12-20T19:55:48;11.07;;;3.13;;
74519;SDS011;63002;48.134;-1.948;2023-12-20T19:58:14;13.93;;;2.65;;
74519;SDS011;63002;48.134;-1.948;2023-12-20T20:00:40;8.57;;;2.63;;
74519;SDS011;63002;48.134;-1.948;2023-12-20T20:03:05;10.07;;;2.80;;
74519;SDS011;63002;48.134;-1.948;2023-12-20T20:05:31;8.65;;;2.70;;
74519;SDS011;63002;48.134;-1.948;2023-12-20T20:07:57;10.90;;;2.97;;
74519;SDS011;63002;48.134;-1.948;2023-12-20T20:10:23;10.02;;;2.45;;
74519;SDS011;63002;48.134;-1.948;2023-12-20T20:12:48;8.37;;;1.97;;
74519;SDS011;63002;48.134;-1.948;2023-12-20T20:15:14;9.85;;;2.35;;
74519;SDS011;63002;48.134;-1.948;2023-12-20T20:17:40;9.63;;;2.33;;
74519;SDS011;63002;48.134;-1.948;2023-12-20T20:20:06;6.57;;;2.03;;
74519;SDS011;63002;48.134;-1.948;2023-12-20T20:22:32;7.25;;;1.92;;
74519;SDS011;63002;48.134;-1.948;2023-12-20T20:25:00;8.27;;;2.17;;
74519;SDS011;63002;48.134;-1.948;2023-12-20T20:27:25;7.68;;;2.33;;
74519;SDS011;63002;48.134;-1.948;2023-12-20T20:29:51;7.53;;;1.67;;
74519;SDS011;63002;48.134;-1.948;2023-12-20T20:32:17;6.80;;;2.05;;
74519;SDS011;63002;48.134;-1.948;2023-12-20T20:34:43;6.93;;;1.70;;
74519;SDS011;63002;48.134;-1.948;2023-12-20T20:37:09;9.95;;;1.83;;